Time;durP1;ratioP1;P1;durP2;ratioP2;P2;SDS_P1;SDS_P2;PMS_P1;PMS_P2;Temp;Humidity;BMP_temperature;BMP_pressure;BME280_temperature;BME280_humidity;BME280_pressure;Samples;Min_cycle;Max_cycle;Signal;HPM_P1;HPM_P2
2023/11/17 00:00:11;;;;;;;10.38;4.50;;;;;;;6.25;79.53;100158.09;5037202;28;20132;-49
2023/11/17 00:02:40;;;;;;;14.60;4.18;;;;;;;6.25;78.81;100158.94;5039505;28;20049;-46
2023/11/17 00:05:07;;;;;;;12.90;4.53;;;;;;;6.26;79.88;100154.69;5039874;28;20072;-46
2023/11/17 00:07:34;;;;;;;15.27;5.50;;;;;;;6.26;79.56;100154.69;5031907;28;20049;-46
2023/11/17 00:10:03;;;;;;;13.73;4.18;;;;;;;6.26;80.33;100152.97;5034243;28;20044;-47
2023/11/17 00:12:31;;;;;;;10.93;4.40;;;;;;;6.27;78.83;100151.25;5033979;28;20041;-42
2023/11/17 00:14:58;;;;;;;11.15;3.88;;;;;;;6.26;78.97;100149.53;5039358;28;20048;-46
2023/11/17 00:17:24;;;;;;;15.40;3.70;;;;;;;6.24;80.39;100146.94;5036533;28;20048;-45
2023/11/17 00:19:51;;;;;;;11.20;4.53;;;;;;;6.23;79.57;100155.50;5035699;28;20794;-48
2023/11/17 00:22:20;;;;;;;10.75;3.42;;;;;;;6.22;79.81;100163.19;5035014;28;20047;-49
2023/11/17 00:24:47;;;;;;;9.70;3.38;;;;;;;6.22;79.39;100158.03;5041227;28;20457;-51
2023/11/17 00:27:14;;;;;;;10.52;3.28;;;;;;;6.21;79.22;100156.31;5040567;28;20106;-47
2023/11/17 00:29:41;;;;;;;9.98;3.58;;;;;;;6.20;80.00;100149.41;5039716;28;20048;-45
2023/11/17 00:32:08;;;;;;;10.68;3.08;;;;;;;6.20;79.23;100154.56;5035361;28;20067;-47
2023/11/17 00:34:35;;;;;;;9.77;3.03;;;;;;;6.21;79.49;100156.31;5034704;28;20068;-49
2023/11/17 00:37:07;;;;;;;10.45;3.38;;;;;;;6.23;80.30;100165.78;5034660;28;20045;-48
2023/11/17 00:39:37;;;;;;;12.02;3.53;;;;;;;6.22;79.59;100164.06;5036047;28;20171;-46
2023/11/17 00:42:04;;;;;;;7.68;3.13;;;;;;;6.24;79.73;100166.63;5038093;28;20045;-48
2023/11/17 00:44:31;;;;;;;7.03;2.83;;;;;;;6.25;80.27;100168.38;5038680;28;20045;-48
2023/11/17 00:46:58;;;;;;;7.75;2.50;;;;;;;6.27;80.46;100169.25;5042245;28;20597;-42
2023/11/17 00:49:26;;;;;;;8.50;3.30;;;;;;;6.28;80.18;100160.69;5042560;28;20044;-44
2023/11/17 00:51:53;;;;;;;8.82;2.17;;;;;;;6.28;80.05;100159.00;5036056;28;20501;-45
2023/11/17 00:54:25;;;;;;;5.07;2.30;;;;;;;6.28;79.34;100163.25;5041517;28;20508;-51
2023/11/17 00:56:54;;;;;;;9.55;3.72;;;;;;;6.29;79.42;100154.72;5037088;28;20420;-48
2023/11/17 00:59:21;;;;;;;8.23;2.63;;;;;;;6.29;80.25;100139.28;5042230;28;20132;-46
2023/11/17 01:01:49;;;;;;;9.45;2.90;;;;;;;6.31;78.90;100142.75;5037817;28;20136;-51
2023/11/17 01:04:17;;;;;;;7.47;2.55;;;;;;;6.33;79.07;100146.22;5035881;28;20049;-45
2023/11/17 01:06:43;;;;;;;7.25;2.60;;;;;;;6.34;79.81;100147.94;5037786;28;20334;-45
2023/11/17 01:09:10;;;;;;;6.82;2.35;;;;;;;6.35;80.45;100143.69;5047086;28;20130;-52
2023/11/17 01:11:39;;;;;;;3.80;1.75;;;;;;;6.33;78.81;100140.19;5039268;28;20050;-48
2023/11/17 01:14:09;;;;;;;5.32;2.00;;;;;;;6.30;79.74;100141.03;5048602;28;20052;-46
2023/11/17 01:16:36;;;;;;;3.58;1.23;;;;;;;6.27;80.35;100133.25;5043403;28;20619;-45
2023/11/17 01:19:03;;;;;;;2.92;1.08;;;;;;;6.25;79.08;100137.50;5038931;28;20045;-48
2023/11/17 01:21:31;;;;;;;2.92;1.42;;;;;;;6.23;78.88;100131.47;5040129;28;20046;-49
2023/11/17 01:24:00;;;;;;;3.05;1.58;;;;;;;6.18;79.27;100126.22;5050099;28;20045;-49
2023/11/17 01:26:27;;;;;;;2.85;1.25;;;;;;;6.17;79.22;100122.81;5041668;28;20095;-46
2023/11/17 01:28:54;;;;;;;5.15;0.73;;;;;;;6.15;80.34;100116.78;5046169;28;20048;-48
2023/11/17 01:31:21;;;;;;;3.70;1.58;;;;;;;6.12;79.88;100113.28;5040691;28;20512;-49
2023/11/17 01:33:49;;;;;;;4.00;1.15;;;;;;;6.10;79.46;100123.56;5042312;28;20453;-46
2023/11/17 01:36:17;;;;;;;3.60;1.88;;;;;;;6.06;79.19;100118.31;5036936;28;20037;-43
2023/11/17 01:38:44;;;;;;;2.95;1.65;;;;;;;6.03;79.24;100117.44;5019200;28;20061;-45
2023/11/17 01:41:20;;;;;;;2.28;1.08;;;;;;;6.00;80.29;100131.91;5035008;28;20081;-45
2023/11/17 01:43:48;;;;;;;2.65;1.13;;;;;;;5.97;79.27;100127.59;5033778;28;20388;-47
2023/11/17 01:46:19;;;;;;;2.22;1.10;;;;;;;5.97;79.56;100126.72;5030861;28;20045;-47
2023/11/17 01:48:46;;;;;;;3.20;0.82;;;;;;;5.95;79.08;100128.41;5039074;28;20161;-49
2023/11/17 01:51:13;;;;;;;3.22;1.60;;;;;;;5.95;79.39;100133.53;5032616;28;20057;-47
2023/11/17 01:53:41;;;;;;;1.40;0.82;;;;;;;5.96;80.66;100124.97;5037839;28;20052;-45
2023/11/17 01:56:08;;;;;;;3.10;0.90;;;;;;;5.98;80.40;100125.88;5042247;28;20045;-45
2023/11/17 01:58:35;;;;;;;1.13;0.50;;;;;;;5.98;80.57;100102.75;5040768;28;20490;-46
2023/11/17 02:01:04;;;;;;;3.95;1.40;;;;;;;6.00;79.27;100116.47;5040036;28;20094;-51
2023/11/17 02:03:33;;;;;;;2.63;1.02;;;;;;;5.97;80.47;100124.13;5041216;28;20085;-43
2023/11/17 02:06:14;;;;;;;3.38;1.15;;;;;;;5.95;80.58;100129.28;5046377;28;20534;-46
2023/11/17 02:08:58;;;;;;;5.05;1.52;;;;;;;5.94;80.57;100111.25;5036593;28;20548;-49
2023/11/17 02:11:35;;;;;;;2.85;0.93;;;;;;;5.91;79.23;100112.91;5036146;28;20099;-43
2023/11/17 02:14:09;;;;;;;3.95;1.10;;;;;;;5.89;80.01;100124.91;5036720;28;20495;-44
2023/11/17 02:16:38;;;;;;;2.50;1.98;;;;;;;5.89;79.76;100130.03;5039206;28;20048;-46
2023/11/17 02:19:18;;;;;;;4.07;1.80;;;;;;;5.89;79.78;100130.03;5033723;28;20053;-43
2023/11/17 02:21:47;;;;;;;6.97;2.05;;;;;;;5.91;80.62;100128.34;5040335;28;20067;-42
2023/11/17 02:24:16;;;;;;;3.60;2.03;;;;;;;5.94;79.41;100134.38;5040003;28;20045;-48
2023/11/17 02:31:58;;;;;;;3.90;1.20;;;;;;;5.96;79.43;100124.97;5032651;27;20413;-48
2023/11/17 02:34:26;;;;;;;11.43;2.00;;;;;;;5.96;79.51;100120.72;5011337;28;20041;-48
2023/11/17 02:36:53;;;;;;;3.80;2.20;;;;;;;5.95;80.15;100108.72;5026316;28;20046;-53
2023/11/17 02:39:36;;;;;;;4.13;2.42;;;;;;;5.93;79.89;100110.38;5012778;28;20053;-47
2023/11/17 02:42:10;;;;;;;5.95;2.40;;;;;;;5.90;80.00;100113.75;5015439;28;20061;-42
2023/11/17 02:44:40;;;;;;;4.68;2.42;;;;;;;5.89;79.88;100127.47;5016586;28;20041;-42
2023/11/17 02:47:09;;;;;;;5.05;2.05;;;;;;;5.87;80.53;100120.53;5013886;28;20049;-51
2023/11/17 02:49:46;;;;;;;6.03;2.40;;;;;;;5.86;80.58;100127.41;5012759;28;20526;-48
2023/11/17 02:54:50;;;;;;;13.20;5.13;;;;;;;6.33;78.62;100135.94;5056472;27;20391;-45
2023/11/17 02:57:21;;;;;;;11.43;3.55;;;;;;;6.12;80.00;100134.72;5041831;28;20111;-47
2023/11/17 02:59:48;;;;;;;;;;;;;;;6.01;81.32;100143.94;5050604;28;20430;-43
2023/11/17 03:02:15;;;;;;;5.20;2.50;;;;;;;6.04;79.67;100132.03;5042873;28;19921;-50
2023/11/17 03:04:42;;;;;;;12.70;3.08;;;;;;;6.05;81.39;100130.34;5038028;28;20076;-46
2023/11/17 03:07:09;;;;;;;9.18;4.38;;;;;;;6.07;80.65;100138.94;5041233;28;20116;-43
2023/11/17 03:09:36;;;;;;;11.98;4.90;;;;;;;6.09;80.31;100137.25;5040275;28;20414;-40
2023/11/17 03:12:06;;;;;;;9.52;3.20;;;;;;;6.09;80.94;100132.13;5057924;28;20045;-45
2023/11/17 03:14:33;;;;;;;9.15;4.72;;;;;;;6.10;80.07;100144.13;5039493;28;20049;-46
2023/11/17 03:17:00;;;;;;;10.73;3.55;;;;;;;6.10;81.34;100144.13;5042581;28;20045;-43
2023/11/17 03:19:30;;;;;;;8.63;4.18;;;;;;;6.07;80.49;100141.50;5039145;28;20064;-45
2023/11/17 03:21:57;;;;;;;8.38;4.78;;;;;;;6.02;81.22;100141.38;5038352;28;20168;-51
2023/11/17 03:24:26;;;;;;;7.28;3.28;;;;;;;5.97;81.34;100142.13;5044573;28;20512;-43
2023/11/17 03:26:55;;;;;;;9.43;3.47;;;;;;;5.95;80.11;100138.69;5017045;28;20453;-49
2023/11/17 03:29:24;;;;;;;10.57;4.57;;;;;;;5.95;79.93;100136.13;5036675;28;20502;-46
2023/11/17 03:31:53;;;;;;;12.45;5.15;;;;;;;5.95;81.52;100144.69;5040447;28;20045;-47
2023/11/17 03:34:24;;;;;;;10.68;3.95;;;;;;;5.95;80.15;100143.81;5032891;28;20113;-50
2023/11/17 03:36:56;;;;;;;13.73;3.65;;;;;;;5.96;80.31;100145.56;5040991;28;20041;-44
2023/11/17 03:39:24;;;;;;;11.55;4.40;;;;;;;5.95;80.68;100148.97;5050793;28;20107;-47
2023/11/17 03:41:52;;;;;;;11.52;3.25;;;;;;;5.95;80.27;100139.56;5036720;28;20057;-47
2023/11/17 03:44:23;;;;;;;10.48;3.30;;;;;;;5.91;80.46;100148.91;5055872;28;20045;-43
2023/11/17 03:46:51;;;;;;;7.97;4.43;;;;;;;5.90;81.67;100154.91;5032621;28;20067;-50
2023/11/17 03:49:18;;;;;;;8.65;4.10;;;;;;;5.90;81.46;100157.47;5054862;28;20080;-44
2023/11/17 03:51:45;;;;;;;10.02;3.08;;;;;;;5.88;80.77;100148.84;5051490;28;20053;-50
2023/11/17 03:54:12;;;;;;;11.57;3.22;;;;;;;5.88;81.08;100166.84;5055647;28;20049;-50
2023/11/17 03:56:39;;;;;;;13.07;6.32;;;;;;;5.88;80.82;100174.56;5058292;28;20060;-43
2023/11/17 03:59:07;;;;;;;14.50;3.90;;;;;;;5.87;80.85;100175.41;5054158;28;20049;-52
2023/11/17 04:01:34;;;;;;;11.52;4.32;;;;;;;5.85;81.29;100171.94;5058842;28;20056;-45
2023/11/17 04:04:01;;;;;;;9.45;3.15;;;;;;;5.85;81.22;100166.81;5050594;28;20051;-44
2023/11/17 04:06:28;;;;;;;9.88;3.28;;;;;;;5.82;81.54;100168.44;5036749;28;20143;-51
2023/11/17 04:08:55;;;;;;;11.38;4.78;;;;;;;5.79;80.21;100153.84;5037326;28;20398;-51
2023/11/17 04:11:21;;;;;;;9.50;4.80;;;;;;;5.78;81.44;100157.25;5035533;28;20064;-43
2023/11/17 04:13:49;;;;;;;10.43;3.90;;;;;;;5.78;80.20;100157.25;5038619;28;20045;-45
2023/11/17 04:16:15;;;;;;;11.30;3.88;;;;;;;5.75;81.15;100162.31;5038574;28;20471;-47
2023/11/17 04:18:42;;;;;;;12.23;5.65;;;;;;;5.72;80.75;100164.81;5035390;28;20798;-46
2023/11/17 04:21:10;;;;;;;11.40;5.13;;;;;;;5.70;80.77;100163.91;5046116;28;20121;-42
2023/11/17 04:23:37;;;;;;;13.35;4.28;;;;;;;5.68;81.02;100187.03;5046709;28;20064;-42
2023/11/17 04:26:04;;;;;;;15.13;5.40;;;;;;;5.65;81.55;100181.84;5007360;28;20694;-45
2023/11/17 04:28:31;;;;;;;9.50;5.07;;;;;;;5.63;80.73;100179.25;5033195;28;20053;-45
2023/11/17 04:30:58;;;;;;;11.25;4.20;;;;;;;5.62;81.30;100187.78;5034789;28;20065;-47
2023/11/17 04:33:25;;;;;;;8.68;3.20;;;;;;;5.60;80.97;100184.31;5042604;28;20044;-49
2023/11/17 04:35:52;;;;;;;10.85;6.50;;;;;;;5.59;81.16;100182.59;5039352;28;20149;-47
2023/11/17 04:38:18;;;;;;;8.27;2.88;;;;;;;5.57;81.58;100183.41;5044529;28;20061;-47
2023/11/17 04:40:45;;;;;;;9.48;3.25;;;;;;;5.54;81.40;100186.75;5036773;28;20052;-42
2023/11/17 04:43:12;;;;;;;8.77;3.65;;;;;;;5.52;81.28;100193.56;5037485;28;20049;-51
2023/11/17 04:45:43;;;;;;;11.13;4.07;;;;;;;5.50;81.24;100197.81;5032942;28;20057;-49
2023/11/17 04:48:11;;;;;;;10.85;4.47;;;;;;;5.48;80.37;100200.38;5042381;28;20080;-47
2023/11/17 04:50:39;;;;;;;11.38;5.40;;;;;;;5.46;81.01;100196.88;5044586;28;20056;-42
2023/11/17 04:53:07;;;;;;;8.20;2.50;;;;;;;5.44;81.10;100195.13;5019977;28;20041;-46
2023/11/17 04:55:34;;;;;;;9.15;3.92;;;;;;;5.44;81.24;100207.97;5037350;28;20053;-49
2023/11/17 04:58:01;;;;;;;12.48;5.13;;;;;;;5.40;80.69;100200.19;5022381;28;20102;-47
2023/11/17 05:00:27;;;;;;;9.23;3.50;;;;;;;5.38;80.89;100191.56;5040057;28;20068;-52
2023/11/17 05:02:54;;;;;;;12.43;5.13;;;;;;;5.36;80.97;100195.81;5033888;28;20049;-44
2023/11/17 05:05:21;;;;;;;11.98;6.35;;;;;;;5.34;80.53;100187.22;5043495;28;20423;-46
2023/11/17 05:07:48;;;;;;;10.18;4.10;;;;;;;5.32;80.82;100183.75;5036548;28;20073;-43
2023/11/17 05:10:19;;;;;;;8.10;3.03;;;;;;;5.31;81.25;100186.28;5040596;28;20056;-48
2023/11/17 05:12:47;;;;;;;12.05;3.35;;;;;;;5.27;80.43;100198.22;5034873;28;20065;-45
2023/11/17 05:15:14;;;;;;;10.23;3.35;;;;;;;5.25;80.34;100207.56;5039257;28;20051;-45
2023/11/17 05:17:45;;;;;;;12.30;5.70;;;;;;;5.23;81.54;100209.22;5037127;28;20158;-44
2023/11/17 05:20:14;;;;;;;9.57;3.08;;;;;;;5.19;81.36;100203.16;5022492;28;20118;-48
2023/11/17 05:22:43;;;;;;;11.45;5.20;;;;;;;5.18;80.63;100211.72;5037633;28;20048;-48
2023/11/17 05:25:11;;;;;;;9.75;4.68;;;;;;;5.14;80.41;100210.75;5040152;28;20108;-44
2023/11/17 05:27:40;;;;;;;8.80;2.55;;;;;;;5.12;81.68;100202.16;5039732;28;20115;-45
2023/11/17 05:30:09;;;;;;;12.30;5.13;;;;;;;5.10;81.35;100216.66;5043308;28;20410;-47
2023/11/17 05:32:37;;;;;;;10.07;4.57;;;;;;;5.08;81.42;100210.66;5003137;28;20049;-42
2023/11/17 05:35:05;;;;;;;6.95;2.78;;;;;;;5.05;81.27;100215.69;5042950;28;20514;-49
2023/11/17 05:37:33;;;;;;;7.85;3.83;;;;;;;5.03;80.41;100212.22;5037124;28;20081;-47
2023/11/17 05:40:00;;;;;;;7.35;2.88;;;;;;;5.01;81.26;100227.59;5032858;28;20050;-49
2023/11/17 05:42:28;;;;;;;11.32;3.08;;;;;;;5.01;80.45;100229.31;5039971;28;20379;-45
2023/11/17 05:44:55;;;;;;;12.57;3.88;;;;;;;4.98;80.36;100224.09;5035179;28;20084;-45
2023/11/17 05:47:23;;;;;;;9.70;3.78;;;;;;;4.96;81.20;100228.34;5042523;28;20135;-46
2023/11/17 05:49:51;;;;;;;11.65;2.45;;;;;;;4.93;81.12;100235.97;5031712;28;20044;-46
2023/11/17 05:52:18;;;;;;;9.15;2.47;;;;;;;4.89;80.46;100235.88;5045321;28;20045;-43
2023/11/17 05:54:46;;;;;;;13.90;3.63;;;;;;;4.88;81.27;100244.44;5043416;28;20057;-44
2023/11/17 05:57:14;;;;;;;9.93;2.22;;;;;;;4.86;81.07;100246.06;5037171;28;20057;-52
2023/11/17 05:59:42;;;;;;;11.27;2.47;;;;;;;4.83;81.47;100246.00;5040952;28;20541;-48
2023/11/17 06:02:10;;;;;;;9.80;2.53;;;;;;;4.84;80.69;100247.75;5006237;28;20057;-47
2023/11/17 06:04:37;;;;;;;7.95;3.55;;;;;;;4.82;80.50;100249.41;5040543;28;20064;-46
2023/11/17 06:07:04;;;;;;;9.27;4.00;;;;;;;4.80;81.27;100245.91;5029634;28;20060;-49
2023/11/17 06:09:31;;;;;;;6.38;2.92;;;;;;;4.79;80.67;100249.31;5042182;28;20053;-44
2023/11/17 06:11:58;;;;;;;8.35;3.45;;;;;;;4.78;81.50;100257.84;5035912;28;20483;-49
2023/11/17 06:14:27;;;;;;;7.85;3.67;;;;;;;4.78;80.67;100259.53;5042809;28;20474;-48
2023/11/17 06:16:54;;;;;;;6.82;3.10;;;;;;;4.76;80.50;100264.63;5036980;28;20201;-44
2023/11/17 06:19:22;;;;;;;6.28;3.95;;;;;;;4.74;80.67;100259.50;5039946;28;20052;-43
2023/11/17 06:21:50;;;;;;;4.95;3.03;;;;;;;4.74;80.82;100266.31;5043441;28;20068;-47
2023/11/17 06:24:16;;;;;;;9.13;1.85;;;;;;;4.71;80.54;100261.09;5025945;28;20494;-52
2023/11/17 06:26:45;;;;;;;8.25;2.38;;;;;;;4.70;81.01;100261.94;5031712;28;20053;-48
2023/11/17 06:29:13;;;;;;;5.93;1.70;;;;;;;4.67;80.84;100255.03;5030328;28;20045;-46
2023/11/17 06:31:41;;;;;;;8.00;3.60;;;;;;;4.65;80.97;100260.94;5030282;28;20491;-44
2023/11/17 06:34:09;;;;;;;8.32;3.05;;;;;;;4.62;80.53;100269.44;5040238;28;20120;-44
2023/11/17 06:36:40;;;;;;;6.85;3.35;;;;;;;4.59;80.85;100271.94;5045327;28;20095;-46
2023/11/17 06:39:16;;;;;;;11.38;2.15;;;;;;;4.55;80.55;100268.41;5033015;28;20482;-45
2023/11/17 06:41:47;;;;;;;6.78;3.38;;;;;;;4.50;80.72;100270.00;5055364;28;20511;-47
2023/11/17 06:44:19;;;;;;;7.85;1.77;;;;;;;4.46;80.48;100275.88;5060165;28;20048;-44
2023/11/17 06:46:47;;;;;;;3.42;1.73;;;;;;;4.43;80.39;100275.81;5043840;28;20057;-46
2023/11/17 06:49:16;;;;;;;6.78;1.77;;;;;;;4.39;80.52;100274.84;5061290;28;20055;-42
2023/11/17 06:51:44;;;;;;;7.50;3.10;;;;;;;4.36;80.42;100270.50;5046870;28;20052;-46
2023/11/17 06:54:13;;;;;;;8.52;1.80;;;;;;;4.33;80.35;100275.53;5058933;28;20373;-47
2023/11/17 06:56:41;;;;;;;6.78;2.92;;;;;;;4.30;80.33;100280.63;5067371;28;20048;-49
2023/11/17 07:01:49;;;;;;;6.53;2.22;;;;;;;4.23;80.56;100288.97;5021757;28;20764;-46
2023/11/17 07:04:17;;;;;;;5.82;2.10;;;;;;;4.20;80.42;100299.13;5005113;28;20141;-46
2023/11/17 07:06:45;;;;;;;4.53;2.08;;;;;;;4.17;80.36;100304.16;5012585;28;20064;-50
2023/11/17 07:09:21;;;;;;;6.15;3.30;;;;;;;4.17;80.38;100310.19;5013889;28;20042;-51
2023/11/17 07:11:51;;;;;;;5.53;2.50;;;;;;;4.13;80.22;100318.59;5012815;28;20045;-42
2023/11/17 07:14:20;;;;;;;6.95;2.42;;;;;;;4.10;80.45;100319.41;5003833;28;20146;-48
2023/11/17 07:16:48;;;;;;;8.82;3.20;;;;;;;4.07;80.37;100311.63;5004637;28;20054;-44
2023/11/17 07:19:16;;;;;;;10.95;4.10;;;;;;;4.04;80.48;100324.34;5003940;28;20127;-45
2023/11/17 07:21:46;;;;;;;11.63;4.47;;;;;;;4.00;80.80;100327.63;5007017;28;20065;-44
2023/11/17 07:24:14;;;;;;;8.68;3.38;;;;;;;3.98;80.15;100335.28;5001040;28;20046;-49
2023/11/17 07:26:44;;;;;;;6.72;2.63;;;;;;;3.96;80.22;100320.69;4998349;28;20146;-46
2023/11/17 07:29:13;;;;;;;5.53;2.65;;;;;;;3.93;80.20;100329.16;4998417;28;20050;-47
2023/11/17 07:31:45;;;;;;;5.03;2.22;;;;;;;3.93;80.57;100325.72;4999706;28;20058;-43
2023/11/17 07:34:16;;;;;;;8.95;2.47;;;;;;;3.91;80.30;100332.47;5000343;28;20136;-47
2023/11/17 07:36:47;;;;;;;6.20;2.80;;;;;;;3.91;80.44;100329.91;5007048;28;20111;-46
2023/11/17 07:39:18;;;;;;;7.15;2.17;;;;;;;3.90;80.37;100336.75;5005424;28;20419;-43
2023/11/17 07:41:46;;;;;;;8.30;2.47;;;;;;;3.91;80.80;100342.72;5002052;28;20046;-51
2023/11/17 07:44:13;;;;;;;9.23;2.63;;;;;;;3.92;80.26;100329.13;4998042;28;20046;-50
2023/11/17 07:46:40;;;;;;;7.65;2.63;;;;;;;3.94;80.49;100335.13;4999715;28;20050;-47
2023/11/17 07:49:10;;;;;;;10.18;2.47;;;;;;;3.97;80.51;100337.81;4997502;28;20500;-45
2023/11/17 07:51:37;;;;;;;7.38;2.38;;;;;;;4.00;80.21;100343.03;5011753;28;20077;-40
2023/11/17 07:54:04;;;;;;;8.23;2.90;;;;;;;4.03;80.70;100350.81;5014920;28;20482;-46
2023/11/17 07:56:31;;;;;;;7.10;3.13;;;;;;;4.10;80.59;100350.16;5001593;28;20045;-45
2023/11/17 07:58:59;;;;;;;6.00;3.05;;;;;;;4.17;80.57;100345.19;4992027;28;20397;-44
2023/11/17 08:01:26;;;;;;;6.70;2.70;;;;;;;4.22;80.69;100356.47;5003258;28;20054;-46
2023/11/17 08:03:58;;;;;;;6.68;2.53;;;;;;;4.30;80.45;100343.84;4999834;28;20720;-49
2023/11/17 08:06:26;;;;;;;8.27;2.03;;;;;;;4.37;80.64;100354.31;5001215;28;20451;-47
2023/11/17 08:08:54;;;;;;;7.78;2.83;;;;;;;4.44;80.16;100359.59;5004043;28;20050;-50
2023/11/17 08:11:22;;;;;;;6.25;2.80;;;;;;;4.52;80.73;100358.13;5000668;28;20435;-43
2023/11/17 08:13:49;;;;;;;7.93;3.30;;;;;;;4.61;80.11;100366.06;4992401;28;20109;-46
2023/11/17 08:16:17;;;;;;;9.13;2.60;;;;;;;4.67;80.16;100377.31;4991996;28;20048;-47
2023/11/17 08:18:50;;;;;;;7.50;2.08;;;;;;;4.74;79.81;100385.25;4982860;28;20058;-43
2023/11/17 08:21:17;;;;;;;9.93;2.50;;;;;;;4.83;79.58;100394.00;4988014;28;20521;-45
2023/11/17 08:23:44;;;;;;;8.10;2.88;;;;;;;4.93;79.76;100390.81;4983743;28;20054;-45
2023/11/17 08:26:15;;;;;;;12.18;2.75;;;;;;;5.11;79.45;100395.59;4986867;28;20557;-47
2023/11/17 08:28:42;;;;;;;9.93;3.95;;;;;;;5.34;79.49;100402.97;4988292;28;20046;-43
2023/11/17 08:31:14;;;;;;;6.90;1.52;;;;;;;5.57;79.11;100410.38;4982967;28;20046;-53
2023/11/17 08:33:44;;;;;;;13.68;2.40;;;;;;;5.89;79.16;100409.38;4981219;28;20050;-49
2023/11/17 08:36:11;;;;;;;9.05;2.90;;;;;;;6.29;79.98;100402.53;4988086;28;20050;-46
2023/11/17 08:38:41;;;;;;;4.03;1.85;;;;;;;6.53;79.37;100400.44;4982282;28;20042;-51
2023/11/17 08:41:10;;;;;;;6.07;1.63;;;;;;;6.60;79.21;100407.44;4990044;28;20415;-44
2023/11/17 08:43:39;;;;;;;8.70;1.98;;;;;;;6.60;79.65;100404.88;4986237;28;20061;-45
2023/11/17 08:46:07;;;;;;;16.42;5.13;;;;;;;6.63;78.78;100404.94;4986331;28;20046;-46
2023/11/17 08:48:35;;;;;;;15.02;4.97;;;;;;;6.83;79.13;100414.75;4983704;28;20599;-47
2023/11/17 08:51:03;;;;;;;22.10;5.53;;;;;;;7.07;78.54;100400.56;4984256;28;20743;-46
2023/11/17 08:53:30;;;;;;;22.05;5.07;;;;;;;7.41;78.06;100403.72;4980881;28;20519;-46
2023/11/17 08:55:57;;;;;;;10.57;3.67;;;;;;;7.82;77.82;100405.19;4981810;28;20078;-46
2023/11/17 08:58:23;;;;;;;12.45;3.47;;;;;;;8.17;78.21;100410.81;4995890;28;20127;-45
2023/11/17 09:00:50;;;;;;;7.93;2.67;;;;;;;8.63;78.32;100410.50;4989036;28;20041;-45
2023/11/17 09:03:21;;;;;;;9.30;2.72;;;;;;;9.41;76.96;100418.13;4985556;28;20081;-48
2023/11/17 09:05:48;;;;;;;13.38;3.90;;;;;;;10.14;76.68;100418.59;4985811;28;20133;-41
2023/11/17 09:08:16;;;;;;;12.57;3.17;;;;;;;10.73;75.76;100416.25;4987669;28;20046;-43
2023/11/17 09:10:43;;;;;;;10.45;3.30;;;;;;;11.41;75.39;100422.38;4996710;28;20148;-45
2023/11/17 09:13:11;;;;;;;13.30;4.18;;;;;;;12.25;75.24;100417.06;4986805;28;20050;-51
2023/11/17 09:15:38;;;;;;;10.68;3.90;;;;;;;13.09;74.58;100416.63;4992807;28;20054;-45
2023/11/17 09:18:07;;;;;;;9.55;3.05;;;;;;;13.90;73.38;100422.00;4988309;28;20514;-48
2023/11/17 09:20:37;;;;;;;10.07;2.70;;;;;;;14.64;71.57;100431.56;4988423;28;20047;-46
2023/11/17 09:23:04;;;;;;;8.30;3.35;;;;;;;15.20;69.40;100431.66;4988935;28;20053;-49
2023/11/17 09:25:31;;;;;;;13.65;6.03;;;;;;;15.76;68.67;100425.50;4988181;28;20046;-46
2023/11/17 09:28:02;;;;;;;;;;;;;;;16.31;69.54;100433.16;4983129;28;20068;-42
2023/11/17 09:30:30;;;;;;;8.57;2.80;;;;;;;16.88;67.67;100427.63;4980573;28;19921;-48
2023/11/17 09:32:59;;;;;;;2.30;1.23;;;;;;;17.40;66.06;100436.03;4979847;28;20083;-42
2023/11/17 09:35:27;;;;;;;4.35;1.73;;;;;;;17.78;65.58;100446.41;4964337;28;20511;-46
2023/11/17 09:37:58;;;;;;;6.68;2.92;;;;;;;18.08;63.86;100448.22;4986445;28;20050;-44
2023/11/17 09:40:28;;;;;;;26.83;9.13;;;;;;;18.50;64.64;100445.31;4987194;28;20495;-52
2023/11/17 09:42:57;;;;;;;46.70;17.60;;;;;;;18.94;62.86;100444.00;4993067;28;20046;-45
2023/11/17 09:45:26;;;;;;;17.08;7.15;;;;;;;19.20;61.42;100460.72;4980733;28;20050;-48
2023/11/17 09:47:55;;;;;;;32.35;16.73;;;;;;;19.31;60.36;100462.13;4983313;28;20416;-49
2023/11/17 09:50:27;;;;;;;26.38;14.02;;;;;;;19.32;59.61;100461.22;4987743;28;20711;-43
2023/11/17 09:52:56;;;;;;;9.63;4.97;;;;;;;19.52;59.31;100456.16;4984188;28;20078;-48
2023/11/17 09:55:27;;;;;;;6.80;5.10;;;;;;;19.76;58.19;100466.75;4983004;28;20443;-48
2023/11/17 09:57:58;;;;;;;12.48;8.35;;;;;;;20.01;57.59;100457.16;4981906;28;20349;-41
2023/11/17 10:00:27;;;;;;;5.85;2.35;;;;;;;20.31;56.60;100461.38;4981266;28;20058;-46
2023/11/17 10:02:57;;;;;;;6.20;1.70;;;;;;;20.60;56.31;100465.53;4982852;28;20049;-48
2023/11/17 10:05:26;;;;;;;2.72;1.45;;;;;;;20.87;55.23;100460.13;4981406;28;20660;-49
2023/11/17 10:07:56;;;;;;;4.35;1.60;;;;;;;21.17;54.15;100466.88;4993425;28;20480;-49
2023/11/17 10:10:23;;;;;;;3.42;1.25;;;;;;;21.34;53.99;100468.81;4983820;28;20048;-46
2023/11/17 10:12:51;;;;;;;7.22;1.95;;;;;;;21.63;53.13;100466.75;4985669;28;20539;-50
2023/11/17 10:15:26;;;;;;;4.30;1.20;;;;;;;21.90;51.74;100479.72;4985492;28;20701;-45
2023/11/17 10:17:57;;;;;;;5.70;1.95;;;;;;;21.97;51.52;100475.00;4986980;28;20491;-52
2023/11/17 10:20:25;;;;;;;4.28;1.52;;;;;;;21.91;51.20;100464.72;4994351;28;20151;-45
2023/11/17 10:22:54;;;;;;;4.20;1.40;;;;;;;21.68;50.18;100470.03;4989841;28;20049;-52
2023/11/17 10:25:22;;;;;;;5.82;2.55;;;;;;;21.36;49.80;100468.75;5001320;28;20054;-51
2023/11/17 10:27:50;;;;;;;5.40;2.65;;;;;;;20.79;49.54;100470.09;4987837;28;20061;-52
2023/11/17 10:30:26;;;;;;;5.20;1.52;;;;;;;20.18;50.31;100480.22;4980181;28;20102;-42
2023/11/17 10:35:34;;;;;;;6.43;1.90;;;;;;;18.91;51.50;100480.81;5041721;27;20414;-55
2023/11/17 10:38:04;;;;;;;6.03;1.90;;;;;;;18.38;52.87;100490.25;5024629;28;20041;-50
2023/11/17 10:40:32;;;;;;;6.97;2.40;;;;;;;17.97;52.61;100488.69;5011140;28;20046;-46
2023/11/17 10:43:15;;;;;;;5.00;1.80;;;;;;;17.47;52.37;100484.69;5020329;28;20466;-46
2023/11/17 10:45:44;;;;;;;3.72;1.58;;;;;;;17.12;54.01;100475.94;5013870;28;20038;-49
2023/11/17 10:48:14;;;;;;;7.07;2.03;;;;;;;16.68;53.47;100484.72;5013849;28;20052;-47
2023/11/17 10:50:42;;;;;;;10.43;2.60;;;;;;;16.27;54.75;100483.78;5020839;28;20065;-48
2023/11/17 10:53:24;;;;;;;5.15;1.98;;;;;;;15.78;53.73;100478.56;5008646;28;20124;-50
2023/11/17 10:55:53;;;;;;;5.97;1.60;;;;;;;15.44;54.89;100481.75;5014714;28;20060;-44
2023/11/17 10:58:20;;;;;;;7.90;1.40;;;;;;;15.10;56.38;100478.75;5023029;28;20048;-41
2023/11/17 11:00:48;;;;;;;6.40;1.05;;;;;;;14.82;56.73;100489.56;5023993;28;20050;-48
2023/11/17 11:03:18;;;;;;;5.60;1.20;;;;;;;14.61;57.42;100491.56;5055941;28;20058;-44
2023/11/17 11:05:46;;;;;;;;;;;;;;;14.29;57.82;100504.97;5018798;28;20136;-48
2023/11/17 11:08:17;;;;;;;11.68;3.20;;;;;;;14.27;58.12;100497.16;5036615;28;19929;-46
2023/11/17 11:13:30;;;;;;;16.35;4.32;;;;;;;14.04;59.01;100500.84;5018172;27;20447;-47
2023/11/17 11:16:12;;;;;;;12.85;3.00;;;;;;;14.04;59.56;100500.84;4998110;28;20046;-50
2023/11/17 11:18:48;;;;;;;8.20;2.42;;;;;;;14.04;59.34;100506.06;4996833;28;20068;-47
2023/11/17 11:21:17;;;;;;;10.75;1.55;;;;;;;14.09;59.38;100498.22;4996529;28;20213;-45
2023/11/17 11:23:45;;;;;;;21.02;6.25;;;;;;;14.02;59.60;100502.63;4995956;28;20054;-45
2023/11/17 11:26:13;;;;;;;10.65;2.75;;;;;;;13.87;59.29;100509.69;4994675;28;20129;-47
2023/11/17 11:28:41;;;;;;;11.52;2.90;;;;;;;13.76;59.82;100501.13;5013853;28;20068;-46
2023/11/17 11:31:11;;;;;;;10.90;3.97;;;;;;;13.73;59.88;100506.34;4993235;28;20404;-47
2023/11/17 11:33:39;;;;;;;11.45;4.25;;;;;;;13.68;59.69;100506.38;4996870;28;20050;-46
2023/11/17 11:36:10;;;;;;;14.70;5.57;;;;;;;13.58;59.83;100503.00;4994767;28;20073;-52
2023/11/17 11:38:39;;;;;;;9.52;3.67;;;;;;;13.44;59.47;100504.81;4993997;28;20435;-51
2023/11/17 11:41:11;;;;;;;17.70;6.10;;;;;;;13.26;59.97;100501.47;4995824;28;20586;-47
2023/11/17 11:43:40;;;;;;;7.00;2.65;;;;;;;13.15;60.16;100492.88;4996101;28;20054;-44
2023/11/17 11:46:09;;;;;;;15.02;4.38;;;;;;;12.96;60.36;100498.16;4991999;28;20149;-45
2023/11/17 11:48:38;;;;;;;10.45;4.95;;;;;;;12.79;60.12;100493.06;5000568;28;20083;-47
2023/11/17 11:51:08;;;;;;;11.52;3.75;;;;;;;12.65;60.14;100487.91;4996238;28;20046;-47